sensor_id;sensor_type;location;lat;lon;timestamp;pressure;altitude;pressure_sealevel;temperature;humidity
50672;BME280;46021;55.882;37.654;2023-07-08T00:00:17;99372.44;;;18.00;81.80
50672;BME280;46021;55.882;37.654;2023-07-08T00:02:50;99367.56;;;17.93;82.05
50672;BME280;46021;55.882;37.654;2023-07-08T00:05:21;99366.09;;;17.89;82.01
50672;BME280;46021;55.882;37.654;2023-07-08T00:07:48;99367.16;;;17.87;82.00
50672;BME280;46021;55.882;37.654;2023-07-08T00:10:17;99371.75;;;17.83;82.06
50672;BME280;46021;55.882;37.654;2023-07-08T00:12:48;99371.19;;;17.78;82.14
50672;BME280;46021;55.882;37.654;2023-07-08T00:15:16;99375.00;;;17.74;82.30
50672;BME280;46021;55.882;37.654;2023-07-08T00:17:44;99382.25;;;17.70;82.34
50672;BME280;46021;55.882;37.654;2023-07-08T00:20:13;99384.06;;;17.70;82.53
50672;BME280;46021;55.882;37.654;2023-07-08T00:22:43;99381.59;;;17.67;82.57
50672;BME280;46021;55.882;37.654;2023-07-08T00:25:13;99377.16;;;17.67;82.56
50672;BME280;46021;55.882;37.654;2023-07-08T00:27:41;99382.66;;;17.64;82.30
50672;BME280;46021;55.882;37.654;2023-07-08T00:30:22;99385.06;;;17.54;83.46
50672;BME280;46021;55.882;37.654;2023-07-08T00:32:49;99393.72;;;17.57;83.06
50672;BME280;46021;55.882;37.654;2023-07-08T00:35:21;99382.44;;;17.54;83.17
50672;BME280;46021;55.882;37.654;2023-07-08T00:37:51;99382.44;;;17.54;82.67
50672;BME280;46021;55.882;37.654;2023-07-08T00:40:21;99381.56;;;17.54;82.57
50672;BME280;46021;55.882;37.654;2023-07-08T00:42:50;99383.34;;;17.53;83.04
50672;BME280;46021;55.882;37.654;2023-07-08T00:45:20;99382.44;;;17.54;82.99
50672;BME280;46021;55.882;37.654;2023-07-08T00:47:51;99395.88;;;17.50;82.51
50672;BME280;46021;55.882;37.654;2023-07-08T00:50:19;99392.59;;;17.46;82.81
50672;BME280;46021;55.882;37.654;2023-07-08T00:52:46;99400.72;;;17.43;83.03
50672;BME280;46021;55.882;37.654;2023-07-08T00:55:15;99390.84;;;17.47;83.83
50672;BME280;46021;55.882;37.654;2023-07-08T00:57:44;99386.69;;;17.43;82.95
50672;BME280;46021;55.882;37.654;2023-07-08T01:00:15;99391.03;;;17.44;82.84
50672;BME280;46021;55.882;37.654;2023-07-08T01:02:47;99391.03;;;17.44;82.82
50672;BME280;46021;55.882;37.654;2023-07-08T01:05:21;99397.78;;;17.48;83.07
50672;BME280;46021;55.882;37.654;2023-07-08T01:07:54;99388.94;;;17.49;83.14
50672;BME280;46021;55.882;37.654;2023-07-08T01:10:27;99399.19;;;17.53;83.15
50672;BME280;46021;55.882;37.654;2023-07-08T01:12:59;99394.66;;;17.56;82.62
50672;BME280;46021;55.882;37.654;2023-07-08T01:15:32;99386.66;;;17.57;82.88
50672;BME280;46021;55.882;37.654;2023-07-08T01:18:02;99397.94;;;17.59;83.23
50672;BME280;46021;55.882;37.654;2023-07-08T01:20:30;99394.25;;;17.62;82.92
50672;BME280;46021;55.882;37.654;2023-07-08T01:22:58;99399.31;;;17.65;82.49
50672;BME280;46021;55.882;37.654;2023-07-08T01:25:26;99402.50;;;17.70;82.30
50672;BME280;46021;55.882;37.654;2023-07-08T01:27:55;99404.19;;;17.71;82.07
50672;BME280;46021;55.882;37.654;2023-07-08T01:30:24;99402.28;;;17.73;82.63
50672;BME280;46021;55.882;37.654;2023-07-08T01:32:52;99401.91;;;17.79;82.51
50672;BME280;46021;55.882;37.654;2023-07-08T01:35:21;99396.63;;;17.79;82.24
50672;BME280;46021;55.882;37.654;2023-07-08T01:37:51;99401.91;;;17.79;81.72
50672;BME280;46021;55.882;37.654;2023-07-08T01:40:26;99407.28;;;17.78;81.77
50672;BME280;46021;55.882;37.654;2023-07-08T01:42:54;99406.31;;;17.79;81.64
50672;BME280;46021;55.882;37.654;2023-07-08T01:45:23;99393.03;;;17.80;81.91
50672;BME280;46021;55.882;37.654;2023-07-08T01:47:54;99399.03;;;17.82;81.98
50672;BME280;46021;55.882;37.654;2023-07-08T01:50:24;99411.22;;;17.85;81.86
50672;BME280;46021;55.882;37.654;2023-07-08T01:52:53;99414.13;;;17.80;81.44
50672;BME280;46021;55.882;37.654;2023-07-08T01:55:24;99399.72;;;17.86;81.36
50672;BME280;46021;55.882;37.654;2023-07-08T01:57:55;99402.06;;;17.90;81.53
50672;BME280;46021;55.882;37.654;2023-07-08T02:00:23;99406.91;;;17.97;81.02
50672;BME280;46021;55.882;37.654;2023-07-08T02:02:50;99405.84;;;17.99;80.73
50672;BME280;46021;55.882;37.654;2023-07-08T02:05:18;99403.22;;;17.99;80.93
50672;BME280;46021;55.882;37.654;2023-07-08T02:07:45;99393.53;;;18.00;80.89
50672;BME280;46021;55.882;37.654;2023-07-08T02:10:12;99390.16;;;17.98;81.14
50672;BME280;46021;55.882;37.654;2023-07-08T02:12:40;99394.56;;;17.97;81.06
50672;BME280;46021;55.882;37.654;2023-07-08T02:15:09;99398.19;;;17.96;80.91
50672;BME280;46021;55.882;37.654;2023-07-08T02:17:37;99399.84;;;17.97;81.15
50672;BME280;46021;55.882;37.654;2023-07-08T02:20:05;99391.28;;;17.93;81.25
50672;BME280;46021;55.882;37.654;2023-07-08T02:22:34;99398.06;;;17.98;80.90
50672;BME280;46021;55.882;37.654;2023-07-08T02:25:02;99389.28;;;17.97;81.08
50672;BME280;46021;55.882;37.654;2023-07-08T02:27:29;99383.72;;;18.02;80.99
50672;BME280;46021;55.882;37.654;2023-07-08T02:29:58;99388.78;;;18.05;81.01
50672;BME280;46021;55.882;37.654;2023-07-08T02:32:25;99396.50;;;18.08;80.70
50672;BME280;46021;55.882;37.654;2023-07-08T02:34:52;99400.59;;;18.12;80.63
50672;BME280;46021;55.882;37.654;2023-07-08T02:37:19;99384.03;;;18.10;80.41
50672;BME280;46021;55.882;37.654;2023-07-08T02:39:46;99390.78;;;18.14;80.47
50672;BME280;46021;55.882;37.654;2023-07-08T02:42:13;99387.22;;;18.15;80.22
50672;BME280;46021;55.882;37.654;2023-07-08T02:44:42;99393.13;;;18.19;80.21
50672;BME280;46021;55.882;37.654;2023-07-08T02:47:10;99385.97;;;18.21;80.09
50672;BME280;46021;55.882;37.654;2023-07-08T02:49:37;99383.22;;;18.22;80.05
50672;BME280;46021;55.882;37.654;2023-07-08T02:52:05;99393.56;;;18.25;79.96
50672;BME280;46021;55.882;37.654;2023-07-08T02:54:32;99394.28;;;18.27;79.66
50672;BME280;46021;55.882;37.654;2023-07-08T02:56:59;99395.25;;;18.26;79.85
50672;BME280;46021;55.882;37.654;2023-07-08T02:59:26;99392.06;;;18.21;79.65
50672;BME280;46021;55.882;37.654;2023-07-08T03:01:54;99393.34;;;18.28;79.79
50672;BME280;46021;55.882;37.654;2023-07-08T03:04:22;99388.06;;;18.28;79.46
50672;BME280;46021;55.882;37.654;2023-07-08T03:06:51;99379.19;;;18.29;79.58
50672;BME280;46021;55.882;37.654;2023-07-08T03:09:18;99379.00;;;18.33;79.84
50672;BME280;46021;55.882;37.654;2023-07-08T03:11:45;99376.66;;;18.41;79.55
50672;BME280;46021;55.882;37.654;2023-07-08T03:14:13;99375.19;;;18.49;79.64
50672;BME280;46021;55.882;37.654;2023-07-08T03:16:40;99372.22;;;18.54;79.30
50672;BME280;46021;55.882;37.654;2023-07-08T03:19:09;99372.94;;;18.56;79.31
50672;BME280;46021;55.882;37.654;2023-07-08T03:21:41;99372.53;;;18.62;79.19
50672;BME280;46021;55.882;37.654;2023-07-08T03:24:09;99373.16;;;18.66;79.12
50672;BME280;46021;55.882;37.654;2023-07-08T03:26:39;99374.63;;;18.70;78.56
50672;BME280;46021;55.882;37.654;2023-07-08T03:29:08;99379.38;;;18.78;78.59
50672;BME280;46021;55.882;37.654;2023-07-08T03:31:40;99382.34;;;18.86;78.97
50672;BME280;46021;55.882;37.654;2023-07-08T03:34:08;99380.22;;;18.91;78.17
50672;BME280;46021;55.882;37.654;2023-07-08T03:36:42;99373.03;;;18.93;78.24
50672;BME280;46021;55.882;37.654;2023-07-08T03:39:14;99381.69;;;18.95;77.75
50672;BME280;46021;55.882;37.654;2023-07-08T03:41:42;99386.97;;;18.95;77.99
50672;BME280;46021;55.882;37.654;2023-07-08T03:44:09;99386.03;;;18.96;77.57
50672;BME280;46021;55.882;37.654;2023-07-08T03:46:37;99388.88;;;18.93;77.63
50672;BME280;46021;55.882;37.654;2023-07-08T03:49:05;99388.66;;;18.96;77.21
50672;BME280;46021;55.882;37.654;2023-07-08T03:51:36;99393.97;;;18.96;76.77
50672;BME280;46021;55.882;37.654;2023-07-08T03:54:06;99381.69;;;18.95;77.05
50672;BME280;46021;55.882;37.654;2023-07-08T03:56:35;99382.41;;;18.97;76.66
50672;BME280;46021;55.882;37.654;2023-07-08T03:59:03;99382.94;;;19.02;76.45
50672;BME280;46021;55.882;37.654;2023-07-08T04:01:31;99380.81;;;19.07;76.67
50672;BME280;46021;55.882;37.654;2023-07-08T04:03:58;99381.84;;;19.18;76.27
50672;BME280;46021;55.882;37.654;2023-07-08T04:06:26;99379.03;;;19.32;76.26
50672;BME280;46021;55.882;37.654;2023-07-08T04:08:54;99382.91;;;19.39;76.22
50672;BME280;46021;55.882;37.654;2023-07-08T04:11:23;99375.38;;;19.46;75.48
50672;BME280;46021;55.882;37.654;2023-07-08T04:13:50;99379.75;;;19.58;75.33
50672;BME280;46021;55.882;37.654;2023-07-08T04:16:20;99381.34;;;19.61;74.64
50672;BME280;46021;55.882;37.654;2023-07-08T04:18:48;99378.28;;;19.54;74.64
50672;BME280;46021;55.882;37.654;2023-07-08T04:21:16;99383.16;;;19.60;74.31
50672;BME280;46021;55.882;37.654;2023-07-08T04:23:43;99375.06;;;19.62;74.41
50672;BME280;46021;55.882;37.654;2023-07-08T04:26:10;99386.78;;;19.46;73.89
50672;BME280;46021;55.882;37.654;2023-07-08T04:28:39;99401.59;;;19.49;73.67
50672;BME280;46021;55.882;37.654;2023-07-08T04:31:06;99394.00;;;19.44;73.47
50672;BME280;46021;55.882;37.654;2023-07-08T04:33:33;99391.28;;;19.33;74.25
50672;BME280;46021;55.882;37.654;2023-07-08T04:36:00;99405.22;;;19.35;73.61
50672;BME280;46021;55.882;37.654;2023-07-08T04:38:27;99399.84;;;19.37;73.15
50672;BME280;46021;55.882;37.654;2023-07-08T04:40:54;99396.88;;;19.41;73.95
50672;BME280;46021;55.882;37.654;2023-07-08T04:43:23;99393.66;;;19.49;73.98
50672;BME280;46021;55.882;37.654;2023-07-08T04:45:56;99398.81;;;19.51;72.96
50672;BME280;46021;55.882;37.654;2023-07-08T04:48:24;99403.31;;;19.37;73.15
50672;BME280;46021;55.882;37.654;2023-07-08T04:50:52;99402.69;;;19.34;72.89
50672;BME280;46021;55.882;37.654;2023-07-08T04:53:19;99412.09;;;19.14;73.08
50672;BME280;46021;55.882;37.654;2023-07-08T04:55:50;99420.75;;;19.16;73.42
50672;BME280;46021;55.882;37.654;2023-07-08T04:58:18;99415.91;;;19.09;73.86
50672;BME280;46021;55.882;37.654;2023-07-08T05:00:45;99423.13;;;18.95;73.88
50672;BME280;46021;55.882;37.654;2023-07-08T05:03:14;99415.50;;;18.90;73.89
50672;BME280;46021;55.882;37.654;2023-07-08T05:05:41;99436.00;;;18.86;73.99
50672;BME280;46021;55.882;37.654;2023-07-08T05:08:08;99430.63;;;18.75;73.87
50672;BME280;46021;55.882;37.654;2023-07-08T05:10:35;99422.81;;;18.74;74.03
50672;BME280;46021;55.882;37.654;2023-07-08T05:13:02;99415.50;;;18.77;73.84
50672;BME280;46021;55.882;37.654;2023-07-08T05:15:29;99416.34;;;18.78;73.98
50672;BME280;46021;55.882;37.654;2023-07-08T05:17:57;99411.72;;;18.81;73.66
50672;BME280;46021;55.882;37.654;2023-07-08T05:20:25;99416.34;;;18.78;73.42
50672;BME280;46021;55.882;37.654;2023-07-08T05:22:52;99409.38;;;18.77;73.92
50672;BME280;46021;55.882;37.654;2023-07-08T05:25:19;99416.16;;;18.81;74.26
50672;BME280;46021;55.882;37.654;2023-07-08T05:27:47;99416.56;;;18.87;74.10
50672;BME280;46021;55.882;37.654;2023-07-08T05:30:15;99421.41;;;18.94;73.71
50672;BME280;46021;55.882;37.654;2023-07-08T05:32:43;99407.25;;;18.95;73.53
50672;BME280;46021;55.882;37.654;2023-07-08T05:35:10;99416.31;;;19.03;73.97
50672;BME280;46021;55.882;37.654;2023-07-08T05:37:39;99413.38;;;19.08;73.23
50672;BME280;46021;55.882;37.654;2023-07-08T05:40:07;99420.09;;;19.12;73.29
50672;BME280;46021;55.882;37.654;2023-07-08T05:42:35;99423.47;;;19.14;72.75
50672;BME280;46021;55.882;37.654;2023-07-08T05:45:03;99422.41;;;19.17;72.91
50672;BME280;46021;55.882;37.654;2023-07-08T05:47:32;99420.28;;;19.22;73.08
50672;BME280;46021;55.882;37.654;2023-07-08T05:49:59;99422.41;;;19.17;72.58
50672;BME280;46021;55.882;37.654;2023-07-08T05:52:26;99420.53;;;19.19;72.72
50672;BME280;46021;55.882;37.654;2023-07-08T05:54:55;99420.06;;;19.25;72.81
50672;BME280;46021;55.882;37.654;2023-07-08T05:57:23;99421.53;;;19.29;71.90
50672;BME280;46021;55.882;37.654;2023-07-08T05:59:50;99413.25;;;19.34;72.73
50672;BME280;46021;55.882;37.654;2023-07-08T06:02:19;99421.59;;;19.40;72.62
50672;BME280;46021;55.882;37.654;2023-07-08T06:04:48;99421.88;;;19.48;72.75
50672;BME280;46021;55.882;37.654;2023-07-08T06:07:16;99419.75;;;19.54;72.46
50672;BME280;46021;55.882;37.654;2023-07-08T06:09:43;99418.25;;;19.62;71.83
50672;BME280;46021;55.882;37.654;2023-07-08T06:12:12;99411.41;;;19.71;71.66
50672;BME280;46021;55.882;37.654;2023-07-08T06:14:39;99408.47;;;19.76;71.13
50672;BME280;46021;55.882;37.654;2023-07-08T06:17:06;99412.22;;;19.84;71.30
50672;BME280;46021;55.882;37.654;2023-07-08T06:19:34;99407.94;;;19.95;71.37
50672;BME280;46021;55.882;37.654;2023-07-08T06:22:01;99401.72;;;20.07;70.43
50672;BME280;46021;55.882;37.654;2023-07-08T06:24:28;99402.72;;;20.17;71.01
50672;BME280;46021;55.882;37.654;2023-07-08T06:26:55;99408.38;;;20.24;69.80
50672;BME280;46021;55.882;37.654;2023-07-08T06:29:24;99404.41;;;20.30;69.73
50672;BME280;46021;55.882;37.654;2023-07-08T06:31:51;99406.84;;;20.33;69.63
50672;BME280;46021;55.882;37.654;2023-07-08T06:34:18;99407.16;;;20.28;69.16
50672;BME280;46021;55.882;37.654;2023-07-08T06:36:48;99408.97;;;20.28;68.58
50672;BME280;46021;55.882;37.654;2023-07-08T06:39:19;99410.44;;;20.32;69.12
50672;BME280;46021;55.882;37.654;2023-07-08T06:41:46;99401.06;;;20.39;69.20
50672;BME280;46021;55.882;37.654;2023-07-08T06:44:15;99398.19;;;20.53;69.19
50672;BME280;46021;55.882;37.654;2023-07-08T06:46:44;99385.41;;;20.58;69.06
50672;BME280;46021;55.882;37.654;2023-07-08T06:49:11;99386.06;;;20.62;67.97
50672;BME280;46021;55.882;37.654;2023-07-08T06:51:38;99387.34;;;20.56;67.06
50672;BME280;46021;55.882;37.654;2023-07-08T06:54:06;99391.50;;;20.60;67.93
50672;BME280;46021;55.882;37.654;2023-07-08T06:56:37;99389.03;;;20.57;67.27
50672;BME280;46021;55.882;37.654;2023-07-08T06:59:05;99388.44;;;20.54;67.15
50672;BME280;46021;55.882;37.654;2023-07-08T07:01:32;99387.84;;;20.50;67.57
50672;BME280;46021;55.882;37.654;2023-07-08T07:04:01;99381.09;;;20.46;67.74
50672;BME280;46021;55.882;37.654;2023-07-08T07:06:29;99392.88;;;20.42;68.03
50672;BME280;46021;55.882;37.654;2023-07-08T07:08:56;99388.78;;;20.38;68.29
50672;BME280;46021;55.882;37.654;2023-07-08T07:11:23;99386.16;;;20.38;68.15
50672;BME280;46021;55.882;37.654;2023-07-08T07:13:50;99382.03;;;20.45;68.30
50672;BME280;46021;55.882;37.654;2023-07-08T07:16:17;99387.59;;;20.53;67.33
50672;BME280;46021;55.882;37.654;2023-07-08T07:18:44;99384.38;;;20.61;67.28
50672;BME280;46021;55.882;37.654;2023-07-08T07:21:13;99392.41;;;20.59;67.02
50672;BME280;46021;55.882;37.654;2023-07-08T07:23:40;99387.84;;;20.50;66.95
50672;BME280;46021;55.882;37.654;2023-07-08T07:26:07;99394.56;;;20.54;66.89
50672;BME280;46021;55.882;37.654;2023-07-08T07:28:34;99401.06;;;20.50;67.07
50672;BME280;46021;55.882;37.654;2023-07-08T07:31:03;99396.75;;;20.49;67.51
50672;BME280;46021;55.882;37.654;2023-07-08T07:33:31;99384.97;;;20.53;67.05
50672;BME280;46021;55.882;37.654;2023-07-08T07:35:58;99390.13;;;20.66;66.81
50672;BME280;46021;55.882;37.654;2023-07-08T07:38:27;99383.41;;;20.73;66.75
50672;BME280;46021;55.882;37.654;2023-07-08T07:40:54;99384.38;;;20.83;66.81
50672;BME280;46021;55.882;37.654;2023-07-08T07:43:21;99376.53;;;20.82;66.37
50672;BME280;46021;55.882;37.654;2023-07-08T07:45:50;99383.06;;;20.89;65.75
50672;BME280;46021;55.882;37.654;2023-07-08T07:48:18;99378.09;;;20.96;65.96
50672;BME280;46021;55.882;37.654;2023-07-08T07:50:46;99381.56;;;21.08;66.20
50672;BME280;46021;55.882;37.654;2023-07-08T07:53:13;99387.06;;;21.27;65.92
50672;BME280;46021;55.882;37.654;2023-07-08T07:55:41;99389.69;;;21.38;64.99
50672;BME280;46021;55.882;37.654;2023-07-08T07:58:09;99391.47;;;21.49;65.31
50672;BME280;46021;55.882;37.654;2023-07-08T08:00:37;99389.69;;;21.50;64.43
50672;BME280;46021;55.882;37.654;2023-07-08T08:03:04;99402.84;;;21.40;63.69
50672;BME280;46021;55.882;37.654;2023-07-08T08:05:31;99397.13;;;20.90;63.33
50672;BME280;46021;55.882;37.654;2023-07-08T08:07:59;99400.38;;;20.82;63.89
50672;BME280;46021;55.882;37.654;2023-07-08T08:10:26;99410.25;;;20.80;64.14
50672;BME280;46021;55.882;37.654;2023-07-08T08:12:54;99414.84;;;20.67;64.00
50672;BME280;46021;55.882;37.654;2023-07-08T08:15:22;99420.00;;;20.57;64.28
50672;BME280;46021;55.882;37.654;2023-07-08T08:17:49;99416.00;;;20.51;64.57
50672;BME280;46021;55.882;37.654;2023-07-08T08:20:18;99421.31;;;20.51;64.66
50672;BME280;46021;55.882;37.654;2023-07-08T08:22:46;99412.16;;;20.55;64.49
50672;BME280;46021;55.882;37.654;2023-07-08T08:25:13;99429.25;;;20.51;63.52
50672;BME280;46021;55.882;37.654;2023-07-08T08:27:40;99430.69;;;20.44;64.41
50672;BME280;46021;55.882;37.654;2023-07-08T08:30:10;99430.16;;;20.28;64.05
50672;BME280;46021;55.882;37.654;2023-07-08T08:32:37;99428.47;;;20.15;65.06
50672;BME280;46021;55.882;37.654;2023-07-08T08:35:05;99431.47;;;20.22;64.62
50672;BME280;46021;55.882;37.654;2023-07-08T08:37:32;99426.66;;;20.27;64.77
50672;BME280;46021;55.882;37.654;2023-07-08T08:39:59;99437.63;;;20.34;64.88
50672;BME280;46021;55.882;37.654;2023-07-08T08:42:38;99431.72;;;20.30;64.15
50672;BME280;46021;55.882;37.654;2023-07-08T08:45:11;99424.03;;;20.27;63.83
50672;BME280;46021;55.882;37.654;2023-07-08T08:47:42;99429.06;;;20.30;64.91
50672;BME280;46021;55.882;37.654;2023-07-08T08:50:23;99420.56;;;20.38;64.51
50672;BME280;46021;55.882;37.654;2023-07-08T08:52:54;99421.03;;;20.54;65.14
50672;BME280;46021;55.882;37.654;2023-07-08T08:55:23;99418.22;;;20.80;65.32
50672;BME280;46021;55.882;37.654;2023-07-08T08:57:57;99426.75;;;21.06;64.53
50672;BME280;46021;55.882;37.654;2023-07-08T09:00:30;99424.78;;;21.31;63.39
50672;BME280;46021;55.882;37.654;2023-07-08T09:03:07;99422.75;;;21.46;62.55
50672;BME280;46021;55.882;37.654;2023-07-08T09:05:36;99421.38;;;21.63;62.68
50672;BME280;46021;55.882;37.654;2023-07-08T09:08:08;99415.22;;;21.83;62.68
50672;BME280;46021;55.882;37.654;2023-07-08T09:10:45;99414.47;;;22.13;60.50
50672;BME280;46021;55.882;37.654;2023-07-08T09:13:17;99429.16;;;22.29;60.01
50672;BME280;46021;55.882;37.654;2023-07-08T09:15:50;99415.19;;;22.57;60.52
50672;BME280;46021;55.882;37.654;2023-07-08T09:18:27;99405.16;;;23.02;60.24
50672;BME280;46021;55.882;37.654;2023-07-08T09:21:03;99404.47;;;23.50;57.89
50672;BME280;46021;55.882;37.654;2023-07-08T09:23:35;99410.78;;;23.88;57.91
50672;BME280;46021;55.882;37.654;2023-07-08T09:26:06;99415.25;;;23.58;56.12
50672;BME280;46021;55.882;37.654;2023-07-08T09:28:38;99406.19;;;23.10;55.57
50672;BME280;46021;55.882;37.654;2023-07-08T09:31:09;99410.56;;;22.90;56.47
50672;BME280;46021;55.882;37.654;2023-07-08T09:33:38;99402.97;;;22.76;57.19
50672;BME280;46021;55.882;37.654;2023-07-08T09:36:17;99408.47;;;22.84;57.76
50672;BME280;46021;55.882;37.654;2023-07-08T09:38:48;99408.28;;;23.07;57.38
50672;BME280;46021;55.882;37.654;2023-07-08T09:41:29;99399.41;;;23.37;56.20
50672;BME280;46021;55.882;37.654;2023-07-08T09:44:04;99409.78;;;23.69;55.56
50672;BME280;46021;55.882;37.654;2023-07-08T09:46:37;99405.03;;;24.02;55.10
50672;BME280;46021;55.882;37.654;2023-07-08T09:49:17;99410.31;;;24.31;52.34
50672;BME280;46021;55.882;37.654;2023-07-08T09:51:45;99414.81;;;24.31;53.58
50672;BME280;46021;55.882;37.654;2023-07-08T09:54:16;99418.84;;;24.45;53.72
50672;BME280;46021;55.882;37.654;2023-07-08T09:56:50;99411.06;;;24.71;53.55
50672;BME280;46021;55.882;37.654;2023-07-08T09:59:21;99399.41;;;24.72;52.43
50672;BME280;46021;55.882;37.654;2023-07-08T10:01:51;99405.34;;;24.94;52.24
50672;BME280;46021;55.882;37.654;2023-07-08T10:04:19;99418.63;;;25.03;51.73
50672;BME280;46021;55.882;37.654;2023-07-08T10:06:47;99404.34;;;24.95;51.48
50672;BME280;46021;55.882;37.654;2023-07-08T10:09:19;99405.06;;;25.24;50.96
50672;BME280;46021;55.882;37.654;2023-07-08T10:11:50;99405.25;;;25.59;50.90
50672;BME280;46021;55.882;37.654;2023-07-08T10:14:24;99400.97;;;25.84;48.44
50672;BME280;46021;55.882;37.654;2023-07-08T10:16:54;99400.50;;;26.06;48.70
50672;BME280;46021;55.882;37.654;2023-07-08T10:19:21;99400.34;;;26.26;48.58
50672;BME280;46021;55.882;37.654;2023-07-08T10:21:55;99397.16;;;26.57;48.42
50672;BME280;46021;55.882;37.654;2023-07-08T10:24:37;99385.69;;;26.99;46.18
50672;BME280;46021;55.882;37.654;2023-07-08T10:27:15;99386.06;;;27.12;47.16
50672;BME280;46021;55.882;37.654;2023-07-08T10:29:52;99394.16;;;27.37;46.78
50672;BME280;46021;55.882;37.654;2023-07-08T10:32:29;99388.84;;;27.61;44.64
50672;BME280;46021;55.882;37.654;2023-07-08T10:35:01;99390.72;;;27.94;43.83
50672;BME280;46021;55.882;37.654;2023-07-08T10:37:38;99391.22;;;28.30;42.42
50672;BME280;46021;55.882;37.654;2023-07-08T10:40:30;99386.50;;;28.32;42.82
50672;BME280;46021;55.882;37.654;2023-07-08T10:43:12;99402.63;;;27.99;42.39
50672;BME280;46021;55.882;37.654;2023-07-08T10:45:49;99406.31;;;27.90;43.45
50672;BME280;46021;55.882;37.654;2023-07-08T10:49:01;99405.94;;;27.85;42.31
50672;BME280;46021;55.882;37.654;2023-07-08T10:51:37;99408.75;;;27.42;42.36
50672;BME280;46021;55.882;37.654;2023-07-08T10:54:12;99400.88;;;27.41;43.49
50672;BME280;46021;55.882;37.654;2023-07-08T10:56:46;99402.25;;;27.61;42.99
50672;BME280;46021;55.882;37.654;2023-07-08T10:59:41;99399.25;;;27.56;42.83
50672;BME280;46021;55.882;37.654;2023-07-08T11:02:37;99394.63;;;27.24;43.24
50672;BME280;46021;55.882;37.654;2023-07-08T11:05:32;99389.47;;;27.31;42.73
50672;BME280;46021;55.882;37.654;2023-07-08T11:08:08;99382.78;;;27.35;43.72
50672;BME280;46021;55.882;37.654;2023-07-08T11:10:43;99386.34;;;27.44;43.27
50672;BME280;46021;55.882;37.654;2023-07-08T11:13:14;99392.50;;;27.44;43.54
50672;BME280;46021;55.882;37.654;2023-07-08T11:15:46;99393.56;;;27.68;43.79
50672;BME280;46021;55.882;37.654;2023-07-08T11:18:22;99391.53;;;27.61;42.77
50672;BME280;46021;55.882;37.654;2023-07-08T11:20:57;99393.22;;;27.63;42.70
50672;BME280;46021;55.882;37.654;2023-07-08T11:23:31;99391.22;;;27.56;42.79
50672;BME280;46021;55.882;37.654;2023-07-08T11:26:14;99386.84;;;27.47;41.92
50672;BME280;46021;55.882;37.654;2023-07-08T11:28:43;99388.88;;;27.70;43.34
50672;BME280;46021;55.882;37.654;2023-07-08T11:31:11;99384.84;;;27.74;42.03
50672;BME280;46021;55.882;37.654;2023-07-08T11:33:40;99395.25;;;28.10;41.85
50672;BME280;46021;55.882;37.654;2023-07-08T11:36:10;99392.25;;;28.13;41.36
50672;BME280;46021;55.882;37.654;2023-07-08T11:38:47;99392.25;;;28.05;40.60
50672;BME280;46021;55.882;37.654;2023-07-08T11:41:17;99394.56;;;28.16;41.59
50672;BME280;46021;55.882;37.654;2023-07-08T11:43:47;99391.34;;;28.53;41.71
50672;BME280;46021;55.882;37.654;2023-07-08T11:46:18;99397.66;;;29.08;40.47
50672;BME280;46021;55.882;37.654;2023-07-08T11:48:48;99396.19;;;29.06;39.85
50672;BME280;46021;55.882;37.654;2023-07-08T11:51:22;99397.53;;;28.46;39.67
50672;BME280;46021;55.882;37.654;2023-07-08T11:53:58;99403.06;;;27.46;40.97
50672;BME280;46021;55.882;37.654;2023-07-08T11:56:26;99402.06;;;26.96;41.44
50672;BME280;46021;55.882;37.654;2023-07-08T11:59:10;99402.94;;;26.70;41.65
50672;BME280;46021;55.882;37.654;2023-07-08T12:01:45;99391.66;;;26.84;42.21
50672;BME280;46021;55.882;37.654;2023-07-08T12:04:27;99395.25;;;27.18;40.81
50672;BME280;46021;55.882;37.654;2023-07-08T12:07:17;99398.53;;;27.30;40.91
50672;BME280;46021;55.882;37.654;2023-07-08T12:12:21;99395.28;;;26.23;41.44
50672;BME280;46021;55.882;37.654;2023-07-08T12:14:50;99398.00;;;26.05;42.85
50672;BME280;46021;55.882;37.654;2023-07-08T12:17:20;99398.59;;;26.17;43.06
50672;BME280;46021;55.882;37.654;2023-07-08T12:19:48;99398.78;;;26.50;42.62
50672;BME280;46021;55.882;37.654;2023-07-08T12:22:17;99403.78;;;26.71;42.44
50672;BME280;46021;55.882;37.654;2023-07-08T12:24:44;99401.91;;;26.63;41.98
50672;BME280;46021;55.882;37.654;2023-07-08T12:27:11;99397.59;;;26.18;41.62
50672;BME280;46021;55.882;37.654;2023-07-08T12:29:38;99404.69;;;25.91;42.60
50672;BME280;46021;55.882;37.654;2023-07-08T12:32:10;99399.25;;;25.75;42.85
50672;BME280;46021;55.882;37.654;2023-07-08T12:34:39;99395.78;;;25.64;43.09
50672;BME280;46021;55.882;37.654;2023-07-08T12:37:11;99388.00;;;25.53;43.66
50672;BME280;46021;55.882;37.654;2023-07-08T12:39:40;99384.44;;;25.62;43.62
50672;BME280;46021;55.882;37.654;2023-07-08T12:42:11;99382.50;;;25.73;43.48
50672;BME280;46021;55.882;37.654;2023-07-08T12:44:39;99381.13;;;25.86;43.72
50672;BME280;46021;55.882;37.654;2023-07-08T12:47:09;99386.88;;;25.74;43.57
50672;BME280;46021;55.882;37.654;2023-07-08T12:49:36;99376.63;;;25.87;43.33
50672;BME280;46021;55.882;37.654;2023-07-08T12:52:04;99378.13;;;25.63;43.95
50672;BME280;46021;55.882;37.654;2023-07-08T12:54:31;99361.97;;;25.19;43.83
50672;BME280;46021;55.882;37.654;2023-07-08T12:57:00;99370.56;;;25.13;44.34
50672;BME280;46021;55.882;37.654;2023-07-08T12:59:29;99371.81;;;24.63;44.66
50672;BME280;46021;55.882;37.654;2023-07-08T13:01:56;99375.47;;;24.90;45.13
50672;BME280;46021;55.882;37.654;2023-07-08T13:04:23;99381.38;;;25.39;44.79
50672;BME280;46021;55.882;37.654;2023-07-08T13:06:51;99372.31;;;25.68;43.75